Providence, Rhode Island
Traffic Map
Current Weather Conditions
Providence, Rhode Island
Clear
Clear
12°
Feels Like: 12°
Wind Chill: 12° Ceiling: Unl
Heat Index: 12° Visibility: 10mi
Dew Point: Wind: 7mph
Humidity: 80% Direction: 200° (SSW)
Pressure: 29.56in Gusts: 0mph
Raw Report DataKPVD 260251Z 20006KT 10SM CLR 12/09 A2956 RMK AO2 SLP009 T01220089 58021
Traffic Incident Summary
Active as of:
Severity:
Category:
InformationThere was an issue retrieving the traffic information for this location. Please try a different location or try again shortly.
Advertisements
Track Severe Weather on mobile